| time (UTC) | temp F | wind direction | speed knots | gust knots | rain 1hr in | rain 24hr in | rain mn in | humidity % | barometer mb |
| 20260510191504 | 70 | 34 | 0.0 | 2.6 | 0.00 | 0.00 | 0.00 | 46 | 1015.2 |
| 20260510190004 | 70 | 350 | 0.0 | 8.7 | 0.00 | 0.00 | 0.00 | 53 | 1015.1 |
| 20260510184504 | 70 | 8 | 0.0 | 7.0 | 0.00 | 0.00 | 0.00 | 50 | 1015.0 |
| 20260510183004 | 70 | 201 | 0.0 | 2.6 | 0.00 | 0.00 | 0.00 | 54 | 1015.0 |
| 20260510180004 | 70 | 93 | 0.9 | 5.2 | 0.00 | 0.00 | 0.00 | 49 | 1015.1 |
| 20260510174504 | 69 | 40 | 0.0 | 2.6 | 0.00 | 0.00 | 0.00 | 53 | 1015.0 |
| 20260510171504 | 69 | 45 | 0.0 | 1.7 | 0.00 | 0.00 | 0.00 | 53 | 1014.8 |
| 20260510163004 | 68 | 325 | 0.0 | 6.1 | 0.00 | 0.00 | 0.00 | 50 | 1015.1 |
| 20260510161504 | 67 | 44 | 0.9 | 4.3 | 0.00 | 0.00 | 0.00 | 46 | 1015.1 |
| 20260510160004 | 67 | 38 | 0.0 | 4.3 | 0.00 | 0.00 | 0.00 | 56 | 1015.0 |
| 20260510154504 | 66 | 37 | 0.0 | 4.3 | 0.00 | 0.00 | 0.00 | 58 | 1015.0 |
| 20260510151504 | 65 | 21 | 0.0 | 2.6 | 0.00 | 0.00 | 0.00 | 59 | 1014.8 |
| 20260510150004 | 64 | 358 | 0.9 | 4.3 | 0.00 | 0.00 | 0.00 | 59 | 1014.6 |
| 20260510144504 | 63 | 57 | 0.0 | 2.6 | 0.00 | 0.00 | 0.00 | 58 | 1014.5 |
| 20260510143004 | 62 | 11 | 0.0 | 2.6 | 0.00 | 0.00 | 0.00 | 61 | 1014.3 |
| 20260510141504 | 62 | 346 | 2.6 | 6.1 | 0.00 | 0.00 | 0.00 | 56 | 1014.1 |
| 20260510140012 | 61 | 52 | 0.0 | 1.7 | 0.00 | 0.00 | 0.00 | 62 | 1013.7 |
| 20260510134505 | 61 | 41 | 0.0 | 1.7 | 0.00 | 0.00 | 0.00 | 65 | 1013.5 |
| 20260510133004 | 60 | 0 | 0.9 | 4.3 | 0.00 | 0.00 | 0.00 | 69 | 1013.2 |
| 20260510131504 | 59 | 34 | 0.0 | 1.7 | 0.00 | 0.00 | 0.00 | 73 | 1012.9 |
| 20260510130004 | 58 | 22 | 0.0 | 4.3 | 0.00 | 0.00 | 0.00 | 72 | 1012.7 |
| 20260510124504 | 57 | 24 | 0.0 | 0.9 | 0.00 | 0.00 | 0.00 | 75 | 1012.6 |
| 20260510123004 | 57 | 330 | 0.0 | 0.9 | 0.00 | 0.00 | 0.00 | 78 | 1012.8 |
| 20260510121503 | 56 | 317 | 0.0 | 0.0 | 0.00 | 0.00 | 0.00 | 78 | 1012.3 |
| 20260510120004 | 56 | 317 | 0.0 | 0.0 | 0.00 | 0.00 | 0.00 | 79 | 1012.0 |
| 20260510114504 | 56 | 317 | 0.0 | 0.0 | 0.00 | 0.00 | 0.00 | 79 | 1012.0 |
| 20260510113004 | 56 | 317 | 0.0 | 0.0 | 0.00 | 0.00 | 0.00 | 79 | 1012.0 |
| 20260510111503 | 56 | 317 | 0.0 | 0.0 | 0.00 | 0.00 | 0.00 | 79 | 1011.8 |
| 20260510110004 | 56 | 317 | 0.0 | 0.0 | 0.00 | 0.01 | 0.00 | 81 | 1011.3 |
| 20260510104504 | 56 | 317 | 0.0 | 0.0 | 0.00 | 0.02 | 0.00 | 82 | 1011.1 |
| 20260510103004 | 55 | 316 | 0.0 | 0.0 | 0.00 | 0.04 | 0.00 | 85 | 1010.9 |
| 20260510101504 | 55 | 316 | 0.0 | 0.0 | 0.00 | 0.07 | 0.00 | 88 | 1010.8 |
| 20260510100004 | 55 | 316 | 0.0 | 0.0 | 0.00 | 0.08 | 0.00 | 89 | 1010.6 |
| 20260510094504 | 55 | 316 | 0.0 | 0.0 | 0.00 | 0.10 | 0.00 | 89 | 1010.2 |
| 20260510093003 | 55 | 316 | 0.0 | 0.0 | 0.00 | 0.11 | 0.00 | 89 | 1010.4 |
| 20260510091504 | 55 | 316 | 0.0 | 0.0 | 0.00 | 0.13 | 0.00 | 89 | 1010.1 |
| 20260510084503 | 55 | 316 | 0.0 | 0.0 | 0.00 | 0.17 | 0.00 | 89 | 1009.7 |
| 20260510081504 | 55 | 269 | 0.0 | 0.0 | 0.00 | 0.19 | 0.00 | 86 | 1009.1 |
| 20260510080004 | 55 | 269 | 0.0 | 0.0 | 0.00 | 0.21 | 0.00 | 86 | 1008.8 |
| 20260510074504 | 56 | 269 | 0.0 | 0.0 | 0.00 | 0.21 | 0.00 | 86 | 1008.5 |
| 20260510073004 | 57 | 269 | 0.0 | 0.0 | 0.00 | 0.21 | 0.00 | 86 | 1008.5 |
| 20260510071504 | 57 | 269 | 0.0 | 0.0 | 0.00 | 0.22 | 0.00 | 84 | 1008.7 |
| 20260510070004 | 58 | 269 | 0.0 | 0.0 | 0.00 | 0.23 | 0.00 | 84 | 1008.7 |
| 20260510064504 | 59 | 269 | 0.0 | 0.0 | 0.00 | 0.24 | 0.00 | 84 | 1008.7 |
| 20260510063004 | 58 | 269 | 0.0 | 0.0 | 0.00 | 0.25 | 0.00 | 84 | 1008.8 |
| 20260510054503 | 58 | 269 | 0.0 | 0.0 | 0.00 | 0.28 | 0.00 | 85 | 1008.7 |
| 20260510053004 | 58 | 269 | 0.0 | 0.0 | 0.00 | 0.30 | 0.00 | 85 | 1008.6 |
| 20260510051504 | 58 | 269 | 0.0 | 0.0 | 0.00 | 0.31 | 0.00 | 84 | 1008.7 |
| 20260510050005 | 58 | 269 | 0.0 | 0.0 | 0.00 | 0.32 | 0.00 | 84 | 1008.5 |
| 20260510044503 | 58 | 269 | 0.0 | 0.0 | 0.00 | 0.32 | 0.00 | 84 | 1008.5 |
| 20260510043003 | 58 | 269 | 0.0 | 0.0 | 0.00 | 0.32 | 0.00 | 84 | 1008.5 |
| 20260510040004 | 58 | 269 | 0.0 | 0.0 | 0.00 | 0.33 | 0.00 | 84 | 1008.1 |
| 20260510034503 | 58 | 269 | 0.0 | 0.0 | 0.00 | 0.33 | 0.33 | 83 | 1008.3 |
| 20260510033004 | 59 | 269 | 0.0 | 0.0 | 0.00 | 0.33 | 0.33 | 82 | 1008.4 |
| 20260510031504 | 59 | 269 | 0.0 | 0.0 | 0.00 | 0.33 | 0.33 | 82 | 1008.3 |
| 20260510024504 | 60 | 269 | 0.0 | 0.0 | 0.00 | 0.33 | 0.33 | 80 | 1008.1 |
| 20260510023003 | 60 | 269 | 0.0 | 0.0 | 0.00 | 0.33 | 0.33 | 80 | 1007.9 |
| 20260510021503 | 61 | 269 | 0.0 | 0.0 | 0.00 | 0.33 | 0.33 | 80 | 1007.8 |
| 20260510020004 | 61 | 269 | 0.0 | 0.0 | 0.00 | 0.33 | 0.33 | 80 | 1007.5 |
| 20260510014504 | 62 | 269 | 0.0 | 0.0 | 0.00 | 0.33 | 0.33 | 78 | 1007.3 |
| 20260510013004 | 63 | 269 | 0.0 | 0.0 | 0.00 | 0.33 | 0.33 | 75 | 1007.1 |
| 20260510010004 | 65 | 269 | 0.0 | 0.0 | 0.00 | 0.34 | 0.33 | 71 | 1006.8 |
| 20260510004504 | 67 | 269 | 0.0 | 0.0 | 0.00 | 0.34 | 0.33 | 70 | 1006.4 |
| 20260510003004 | 68 | 269 | 0.0 | 0.0 | 0.00 | 0.34 | 0.33 | 67 | 1006.2 |
| 20260510001504 | 69 | 269 | 0.0 | 0.0 | 0.00 | 0.34 | 0.33 | 63 | 1006.0 |
| 20260510000003 | 70 | 269 | 0.0 | 0.9 | 0.00 | 0.34 | 0.33 | 60 | 1005.9 |
| 20260509234504 | 71 | 242 | 0.0 | 2.6 | 0.00 | 0.34 | 0.33 | 60 | 1005.8 |
| 20260509233004 | 71 | 219 | 0.0 | 1.7 | 0.00 | 0.34 | 0.33 | 62 | 1005.6 |
| 20260509231504 | 71 | 259 | 0.0 | 1.7 | 0.00 | 0.34 | 0.33 | 59 | 1005.5 |
| 20260509230004 | 72 | 240 | 0.0 | 2.6 | 0.00 | 0.34 | 0.33 | 57 | 1005.5 |
| 20260509224504 | 73 | 244 | 0.0 | 2.6 | 0.00 | 0.34 | 0.33 | 56 | 1005.4 |
| 20260509221504 | 73 | 259 | 0.0 | 4.3 | 0.00 | 0.34 | 0.33 | 55 | 1005.4 |
| 20260509220004 | 72 | 242 | 0.9 | 4.3 | 0.00 | 0.34 | 0.33 | 55 | 1005.4 |
| 20260509214504 | 73 | 243 | 0.0 | 2.6 | 0.00 | 0.34 | 0.33 | 56 | 1005.4 |
| 20260509213004 | 73 | 231 | 0.0 | 2.6 | 0.00 | 0.34 | 0.33 | 57 | 1005.5 |
| 20260509203003 | 73 | 256 | 0.0 | 4.3 | 0.00 | 0.34 | 0.33 | 62 | 1005.9 |
| 20260509201504 | 72 | 262 | 0.9 | 4.3 | 0.00 | 0.34 | 0.33 | 61 | 1006.0 |
| 20260509200004 | 73 | 217 | 0.9 | 4.3 | 0.00 | 0.34 | 0.33 | 62 | 1006.0 |
| 20260509194504 | 72 | 261 | 0.9 | 2.6 | 0.00 | 0.34 | 0.33 | 63 | 1006.2 |
| 20260509193004 | 72 | 247 | 0.9 | 2.6 | 0.00 | 0.34 | 0.33 | 61 | 1006.5 |